createdAt,value
2022-10-13T00:00:02.047Z,100
2022-10-13T00:01:01.959Z,100
2022-10-13T00:02:02.024Z,100
2022-10-13T00:03:01.991Z,100
2022-10-13T00:04:01.789Z,100
2022-10-13T00:05:01.773Z,100
2022-10-13T00:06:01.548Z,100
2022-10-13T00:07:02.546Z,100
2022-10-13T00:08:02.331Z,100
2022-10-13T00:09:02.297Z,100
2022-10-13T00:10:02.099Z,100
2022-10-13T00:11:01.925Z,100
2022-10-13T00:12:01.861Z,100
2022-10-13T00:13:01.728Z,100
2022-10-13T00:14:01.554Z,100
2022-10-13T00:15:02.533Z,100
2022-10-13T00:16:02.242Z,100
2022-10-13T00:17:02.295Z,100
2022-10-13T00:18:02.275Z,100
2022-10-13T00:19:02.444Z,100
2022-10-13T00:20:02.152Z,100
2022-10-13T00:21:02.129Z,100
2022-10-13T00:22:01.918Z,100
2022-10-13T00:23:01.937Z,100
2022-10-13T00:24:01.687Z,100
2022-10-13T00:25:01.635Z,100
2022-10-13T00:26:02.566Z,100
2022-10-13T00:27:02.300Z,100
2022-10-13T00:28:02.394Z,100
2022-10-13T00:29:02.250Z,100
2022-10-13T00:30:02.206Z,100
2022-10-13T00:31:01.970Z,100
2022-10-13T00:32:01.760Z,100
2022-10-13T00:33:01.720Z,100
2022-10-13T00:34:01.530Z,100
2022-10-13T00:35:02.508Z,100
2022-10-13T00:36:02.260Z,100
2022-10-13T00:37:02.223Z,100
2022-10-13T00:38:01.995Z,100
2022-10-13T00:39:01.837Z,100
2022-10-13T00:40:01.765Z,100
2022-10-13T00:41:01.573Z,100
2022-10-13T00:42:02.555Z,100
2022-10-13T00:43:02.330Z,100
2022-10-13T00:44:02.237Z,100
2022-10-13T00:45:01.962Z,100
2022-10-13T00:46:01.877Z,100
2022-10-13T00:47:02.098Z,100
2022-10-13T00:48:02.065Z,100
2022-10-13T00:49:01.860Z,100
2022-10-13T00:50:01.831Z,100
2022-10-13T00:51:01.563Z,100
2022-10-13T00:52:02.613Z,100
2022-10-13T00:53:02.331Z,100
2022-10-13T00:54:02.350Z,100
2022-10-13T00:55:02.095Z,100
2022-10-13T00:56:02.057Z,100
2022-10-13T00:57:01.795Z,100
2022-10-13T00:58:05.689Z,100
2022-10-13T00:59:02.644Z,100
2022-10-13T01:00:02.348Z,100
2022-10-13T01:01:02.407Z,100
2022-10-13T01:02:02.490Z,100
2022-10-13T01:03:02.270Z,100
2022-10-13T01:04:02.173Z,100
2022-10-13T01:05:01.892Z,100
2022-10-13T01:06:01.867Z,100
2022-10-13T01:07:01.619Z,100
2022-10-13T01:08:01.609Z,100
2022-10-13T01:09:02.523Z,100
2022-10-13T01:10:02.276Z,100
2022-10-13T01:11:02.220Z,100
2022-10-13T01:12:01.991Z,100
2022-10-13T01:13:01.839Z,100
2022-10-13T01:14:01.782Z,100
2022-10-13T01:15:01.725Z,100
2022-10-13T01:16:02.596Z,100
2022-10-13T01:17:02.358Z,100
2022-10-13T01:18:02.331Z,100
2022-10-13T01:19:02.086Z,100
2022-10-13T01:20:01.950Z,100
2022-10-13T01:21:01.909Z,100
2022-10-13T01:22:01.663Z,100
2022-10-13T01:23:01.701Z,100
2022-10-13T01:24:02.588Z,100
2022-10-13T01:25:02.317Z,100
2022-10-13T01:26:02.380Z,100
2022-10-13T01:27:02.118Z,100
2022-10-13T01:28:02.163Z,100
2022-10-13T01:29:01.889Z,100
2022-10-13T01:30:01.895Z,100
2022-10-13T01:31:01.605Z,100
2022-10-13T01:32:01.556Z,100
2022-10-13T01:33:02.527Z,100
2022-10-13T01:34:02.329Z,100
2022-10-13T01:35:02.365Z,100
2022-10-13T01:36:02.083Z,100
2022-10-13T01:37:02.019Z,100
2022-10-13T01:38:01.800Z,100
2022-10-13T01:39:01.768Z,100
2022-10-13T01:40:01.493Z,100
2022-10-13T01:41:02.476Z,100
2022-10-13T01:42:02.260Z,100
2022-10-13T01:43:02.198Z,100
2022-10-13T01:44:01.898Z,100
2022-10-13T01:45:01.831Z,100
2022-10-13T01:46:01.617Z,100
2022-10-13T01:47:01.575Z,100
2022-10-13T01:48:02.563Z,100
2022-10-13T01:49:02.298Z,100
2022-10-13T01:50:02.258Z,100
2022-10-13T01:51:02.027Z,100
2022-10-13T01:52:01.903Z,100
2022-10-13T01:53:01.843Z,100
2022-10-13T01:54:01.625Z,100
2022-10-13T01:55:02.571Z,100
2022-10-13T01:56:02.335Z,100
2022-10-13T01:57:02.276Z,100
2022-10-13T01:58:02.101Z,100
2022-10-13T01:59:01.973Z,100
2022-10-13T02:00:01.891Z,100
2022-10-13T02:01:01.773Z,100
2022-10-13T02:02:01.967Z,100
2022-10-13T02:03:02.025Z,100
2022-10-13T02:04:01.689Z,100
2022-10-13T02:05:01.722Z,100
2022-10-13T02:06:02.629Z,100
2022-10-13T02:07:02.362Z,100
2022-10-13T02:08:02.313Z,100
2022-10-13T02:09:02.071Z,100
2022-10-13T02:10:01.991Z,100
2022-10-13T02:11:01.947Z,100
2022-10-13T02:12:01.697Z,100
2022-10-13T02:13:01.692Z,100
2022-10-13T02:14:02.624Z,100
2022-10-13T02:15:02.353Z,100
2022-10-13T02:16:02.398Z,100
2022-10-13T02:17:02.090Z,100
2022-10-13T02:18:02.155Z,100
2022-10-13T02:19:01.886Z,100
2022-10-13T02:20:01.812Z,100
2022-10-13T02:21:01.575Z,100
2022-10-13T02:22:02.543Z,100
2022-10-13T02:23:02.305Z,100
2022-10-13T02:24:02.265Z,100
2022-10-13T02:25:02.056Z,100
2022-10-13T02:26:01.891Z,100
2022-10-13T02:27:01.832Z,100
2022-10-13T02:28:01.719Z,100
2022-10-13T02:29:02.548Z,100
2022-10-13T02:30:02.323Z,100
2022-10-13T02:31:02.350Z,100
2022-10-13T02:32:02.289Z,100
2022-10-13T02:33:02.052Z,100
2022-10-13T02:34:02.080Z,100
2022-10-13T02:35:01.868Z,100
2022-10-13T02:36:01.818Z,100
2022-10-13T02:37:01.585Z,100
2022-10-13T02:38:02.567Z,100
2022-10-13T02:39:02.493Z,100
2022-10-13T02:40:02.286Z,100
2022-10-13T02:41:02.130Z,100
2022-10-13T02:42:02.013Z,100
2022-10-13T02:43:02.050Z,100
2022-10-13T02:44:01.752Z,100
2022-10-13T02:45:01.748Z,100
2022-10-13T02:46:02.656Z,100
2022-10-13T02:47:02.478Z,100
2022-10-13T02:48:02.476Z,100
2022-10-13T02:49:02.214Z,100
2022-10-13T02:50:02.265Z,100
2022-10-13T02:51:02.012Z,100
2022-10-13T02:52:01.914Z,100
2022-10-13T02:53:01.848Z,100
2022-10-13T02:54:01.572Z,100
2022-10-13T02:55:02.585Z,100
2022-10-13T02:56:02.463Z,100
2022-10-13T02:57:02.219Z,100
2022-10-13T02:58:02.063Z,100
2022-10-13T02:59:01.896Z,100
2022-10-13T03:00:01.947Z,100
2022-10-13T03:01:01.751Z,100
2022-10-13T03:02:01.932Z,100
2022-10-13T03:03:01.940Z,100
2022-10-13T03:04:01.672Z,100
2022-10-13T03:05:01.636Z,100
2022-10-13T03:06:02.565Z,100
2022-10-13T03:07:02.331Z,100
2022-10-13T03:08:02.286Z,100
2022-10-13T03:09:02.037Z,100
2022-10-13T03:10:01.915Z,100
2022-10-13T03:11:01.869Z,100
2022-10-13T03:12:01.642Z,100
2022-10-13T03:13:01.603Z,100
2022-10-13T03:14:02.479Z,100
2022-10-13T03:15:02.253Z,100
2022-10-13T03:16:02.193Z,100
2022-10-13T03:17:02.078Z,100
2022-10-13T03:18:01.977Z,100
2022-10-13T03:19:01.935Z,100
2022-10-13T03:20:01.665Z,100
2022-10-13T03:21:01.626Z,100
2022-10-13T03:22:02.555Z,100
2022-10-13T03:23:02.297Z,100
2022-10-13T03:24:02.270Z,100
2022-10-13T03:25:02.036Z,100
2022-10-13T03:26:01.944Z,100
2022-10-13T03:27:01.953Z,100
2022-10-13T03:28:01.653Z,100
2022-10-13T03:29:01.698Z,100
2022-10-13T03:30:02.525Z,100
2022-10-13T03:31:02.302Z,100
2022-10-13T03:32:02.286Z,100
2022-10-13T03:33:02.238Z,100
2022-10-13T03:34:02.063Z,100
2022-10-13T03:35:01.881Z,100
2022-10-13T03:36:01.815Z,100
2022-10-13T03:37:01.537Z,100
2022-10-13T03:38:02.561Z,100
2022-10-13T03:39:02.290Z,100
2022-10-13T03:40:02.237Z,100
2022-10-13T03:41:02.014Z,100
2022-10-13T03:42:01.892Z,100
2022-10-13T03:43:01.889Z,100
2022-10-13T03:44:01.648Z,100
2022-10-13T03:45:01.655Z,100
2022-10-13T03:46:02.518Z,100
2022-10-13T03:47:02.229Z,100
2022-10-13T03:48:02.199Z,100
2022-10-13T03:49:01.931Z,100
2022-10-13T03:50:01.779Z,100
2022-10-13T03:51:01.744Z,100
2022-10-13T03:52:01.675Z,100
2022-10-13T03:53:02.491Z,100
2022-10-13T03:54:02.257Z,100
2022-10-13T03:55:02.279Z,100
2022-10-13T03:56:01.986Z,100
2022-10-13T03:57:01.790Z,100
2022-10-13T03:58:01.848Z,100
2022-10-13T03:59:01.552Z,100
2022-10-13T04:00:02.572Z,100
2022-10-13T04:01:02.295Z,100
2022-10-13T04:02:02.497Z,100
2022-10-13T04:03:02.514Z,100
2022-10-13T04:04:02.244Z,100
2022-10-13T04:05:02.274Z,100
2022-10-13T04:06:01.976Z,100
2022-10-13T04:07:01.871Z,100
2022-10-13T04:08:01.882Z,100
2022-10-13T04:09:01.606Z,100
2022-10-13T04:10:02.578Z,100
2022-10-13T04:11:02.357Z,100
2022-10-13T04:12:02.274Z,100
2022-10-13T04:13:02.079Z,100
2022-10-13T04:14:01.941Z,100
2022-10-13T04:15:01.994Z,100
2022-10-13T04:16:01.676Z,100
2022-10-13T04:17:01.597Z,100
2022-10-13T04:18:02.592Z,100
2022-10-13T04:19:02.366Z,100
2022-10-13T04:20:02.557Z,100
2022-10-13T04:21:02.297Z,100
2022-10-13T04:22:02.281Z,100
2022-10-13T04:23:02.074Z,100
2022-10-13T04:24:01.923Z,100
2022-10-13T04:25:02.057Z,100
2022-10-13T04:26:01.939Z,100
2022-10-13T04:27:01.718Z,100
2022-10-13T04:28:01.718Z,100
2022-10-13T04:29:02.550Z,100
2022-10-13T04:30:02.312Z,100
2022-10-13T04:31:02.326Z,100
2022-10-13T04:32:02.110Z,100
2022-10-13T04:33:01.991Z,100
2022-10-13T04:34:01.979Z,100
2022-10-13T04:35:01.734Z,100
2022-10-13T04:36:01.675Z,100
2022-10-13T04:37:02.572Z,100
2022-10-13T04:38:02.337Z,100
2022-10-13T04:39:02.281Z,100
2022-10-13T04:40:02.033Z,100
2022-10-13T04:41:01.908Z,100
2022-10-13T04:42:01.885Z,100
2022-10-13T04:43:01.674Z,100
2022-10-13T04:44:01.614Z,100
2022-10-13T04:45:02.487Z,100
2022-10-13T04:46:02.257Z,100
2022-10-13T04:47:02.170Z,100
2022-10-13T04:48:02.128Z,100
2022-10-13T04:49:01.861Z,100
2022-10-13T04:50:01.925Z,100
2022-10-13T04:51:01.658Z,100
2022-10-13T04:52:01.699Z,100
2022-10-13T04:53:02.528Z,100
2022-10-13T04:54:02.324Z,100
2022-10-13T04:55:02.252Z,100
2022-10-13T04:56:02.005Z,100
2022-10-13T04:57:01.829Z,100
2022-10-13T04:58:01.799Z,100
2022-10-13T04:59:01.574Z,100
2022-10-13T05:00:02.523Z,100
2022-10-13T05:01:02.383Z,100
2022-10-13T05:02:02.376Z,100
2022-10-13T05:03:02.343Z,100
2022-10-13T05:04:02.379Z,100
2022-10-13T05:05:02.088Z,100
2022-10-13T05:06:02.169Z,100
2022-10-13T05:07:18.913Z,100
2022-10-13T05:08:01.740Z,100
2022-10-13T05:09:01.725Z,100
2022-10-13T05:10:02.553Z,100
2022-10-13T05:11:02.352Z,100
2022-10-13T05:12:02.278Z,100
2022-10-13T05:13:02.086Z,100
2022-10-13T05:14:01.952Z,100
2022-10-13T05:15:01.978Z,100
2022-10-13T05:16:01.667Z,100
2022-10-13T05:17:01.742Z,100
2022-10-13T05:18:01.696Z,100
2022-10-13T05:19:02.585Z,100
2022-10-13T05:20:02.357Z,100
2022-10-13T05:21:02.354Z,100
2022-10-13T05:22:02.117Z,100
2022-10-13T05:23:02.089Z,100
2022-10-13T05:24:01.855Z,100
2022-10-13T05:25:01.778Z,100
2022-10-13T05:26:01.553Z,100
2022-10-13T05:27:02.523Z,100
2022-10-13T05:28:02.301Z,100
2022-10-13T05:29:02.269Z,100
2022-10-13T05:30:02.016Z,100
2022-10-13T05:31:01.882Z,100
2022-10-13T05:32:01.897Z,100
2022-10-13T05:33:01.946Z,100
2022-10-13T05:34:01.652Z,100
2022-10-13T05:35:01.657Z,100
2022-10-13T05:36:02.583Z,100
2022-10-13T05:37:02.325Z,100
2022-10-13T05:38:02.278Z,100
2022-10-13T05:39:02.022Z,100
2022-10-13T05:40:01.899Z,100
2022-10-13T05:41:01.844Z,100
2022-10-13T05:42:01.577Z,100
2022-10-13T05:43:02.594Z,100
2022-10-13T05:44:02.046Z,100
2022-10-13T05:45:02.040Z,100
2022-10-13T05:46:01.748Z,100
2022-10-13T05:47:07.721Z,100
2022-10-13T05:48:01.576Z,100
2022-10-13T05:49:02.541Z,100
2022-10-13T05:50:02.298Z,100
2022-10-13T05:51:02.481Z,100
2022-10-13T05:52:02.309Z,100
2022-10-13T05:53:02.090Z,100
2022-10-13T05:54:02.099Z,100
2022-10-13T05:55:01.863Z,100
2022-10-13T05:56:01.698Z,100
2022-10-13T05:57:01.509Z,100
2022-10-13T05:58:02.458Z,100
2022-10-13T05:59:02.244Z,100
2022-10-13T06:00:02.288Z,100
2022-10-13T06:01:01.995Z,100
2022-10-13T06:02:02.121Z,100
2022-10-13T06:03:02.142Z,100
2022-10-13T06:04:01.920Z,100
2022-10-13T06:05:01.904Z,100
2022-10-13T06:06:01.677Z,100
2022-10-13T06:07:01.633Z,100
2022-10-13T06:08:02.591Z,100
2022-10-13T06:09:02.326Z,100
2022-10-13T06:10:02.348Z,100
2022-10-13T06:11:02.046Z,100
2022-10-13T06:12:02.021Z,100
2022-10-13T06:13:01.797Z,100
2022-10-13T06:14:01.811Z,100
2022-10-13T06:15:01.532Z,100
2022-10-13T06:16:02.524Z,100
2022-10-13T06:17:02.304Z,100
2022-10-13T06:18:02.264Z,100
2022-10-13T06:19:02.021Z,100
2022-10-13T06:20:01.907Z,100
2022-10-13T06:21:01.939Z,100
2022-10-13T06:22:04.168Z,100
2022-10-13T06:23:01.926Z,100
2022-10-13T06:24:01.982Z,100
2022-10-13T06:25:01.697Z,100
2022-10-13T06:26:01.664Z,100
2022-10-13T06:27:02.550Z,100
2022-10-13T06:28:02.299Z,100
2022-10-13T06:29:02.495Z,100
2022-10-13T06:30:02.550Z,100
2022-10-13T06:31:02.280Z,100
2022-10-13T06:32:02.179Z,100
2022-10-13T06:33:02.232Z,100
2022-10-13T06:34:01.906Z,100
2022-10-13T06:35:01.885Z,100
2022-10-13T06:36:01.616Z,100
2022-10-13T06:37:02.606Z,100
2022-10-13T06:38:02.346Z,100
2022-10-13T06:39:02.378Z,100
2022-10-13T06:40:02.109Z,100
2022-10-13T06:41:02.075Z,100
2022-10-13T06:42:01.872Z,100
2022-10-13T06:43:01.847Z,100
2022-10-13T06:44:01.573Z,100
2022-10-13T06:45:02.589Z,100
2022-10-13T06:46:02.321Z,100
2022-10-13T06:47:02.190Z,100
2022-10-13T06:48:02.240Z,100
2022-10-13T06:49:02.058Z,100
2022-10-13T06:50:01.885Z,100
2022-10-13T06:51:01.939Z,100
2022-10-13T06:52:01.660Z,100
2022-10-13T06:53:01.634Z,100
2022-10-13T06:54:02.506Z,100
2022-10-13T06:55:02.289Z,100
2022-10-13T06:56:02.289Z,100
2022-10-13T06:57:02.044Z,100
2022-10-13T06:58:01.868Z,100
2022-10-13T06:59:01.959Z,100
2022-10-13T07:00:01.799Z,100
2022-10-13T07:01:01.717Z,100
2022-10-13T07:02:01.557Z,100
2022-10-13T07:03:02.510Z,100
2022-10-13T07:04:02.283Z,100
2022-10-13T07:05:02.253Z,100
2022-10-13T07:06:01.942Z,100
2022-10-13T07:07:01.859Z,100
2022-10-13T07:08:01.814Z,100
2022-10-13T07:09:01.608Z,100
2022-10-13T07:10:02.510Z,100
2022-10-13T07:11:02.321Z,100
2022-10-13T07:12:02.284Z,100
2022-10-13T07:13:02.004Z,100
2022-10-13T07:15:01.946Z,100
2022-10-13T07:16:01.656Z,100
2022-10-13T07:17:01.788Z,100
2022-10-13T07:18:01.738Z,100
2022-10-13T07:19:01.563Z,100
2022-10-13T07:20:07.484Z,100
2022-10-13T07:21:02.337Z,100
2022-10-13T07:22:02.286Z,100
2022-10-13T07:23:02.110Z,100
2022-10-13T07:24:02.044Z,100
2022-10-13T07:25:02.014Z,100
2022-10-13T07:26:01.792Z,100
2022-10-13T07:27:07.962Z,100
2022-10-13T07:28:01.838Z,100
2022-10-13T07:29:01.759Z,100
2022-10-13T07:30:01.526Z,100
2022-10-13T07:31:02.534Z,100
2022-10-13T07:32:02.506Z,100
2022-10-13T07:33:02.284Z,100
2022-10-13T07:34:02.139Z,100
2022-10-13T07:35:02.065Z,100
2022-10-13T07:36:02.028Z,100
2022-10-13T07:37:01.789Z,100
2022-10-13T07:38:01.830Z,100
2022-10-13T07:39:01.580Z,100
2022-10-13T07:40:02.559Z,100
2022-10-13T07:41:02.276Z,100
2022-10-13T07:42:02.248Z,100
2022-10-13T07:43:02.091Z,100
2022-10-13T07:44:01.967Z,100
2022-10-13T07:45:01.899Z,100
2022-10-13T07:46:01.644Z,100
2022-10-13T07:47:01.663Z,100
2022-10-13T07:48:01.643Z,100
2022-10-13T07:49:02.627Z,100
2022-10-13T07:50:02.356Z,100
2022-10-13T07:51:02.299Z,100
2022-10-13T07:52:02.112Z,100
2022-10-13T07:53:01.968Z,100
2022-10-13T07:54:02.016Z,100
2022-10-13T07:55:01.741Z,100
2022-10-13T07:56:01.706Z,100
2022-10-13T07:57:02.544Z,100
2022-10-13T07:58:01.537Z,100
2022-10-13T07:59:02.539Z,100
2022-10-13T08:00:02.333Z,100
2022-10-13T08:01:02.164Z,100
2022-10-13T08:02:02.467Z,100
2022-10-13T08:03:02.184Z,100
2022-10-13T08:04:02.254Z,100
2022-10-13T08:05:01.999Z,100
2022-10-13T08:06:01.877Z,100
2022-10-13T08:07:01.873Z,100
2022-10-13T08:08:01.576Z,100
2022-10-13T08:09:02.618Z,100
2022-10-13T08:10:02.371Z,100
2022-10-13T08:11:02.453Z,100
2022-10-13T08:12:02.375Z,100
2022-10-13T08:13:02.211Z,100
2022-10-13T08:14:01.974Z,100
2022-10-13T08:15:06.677Z,100
2022-10-13T08:16:01.627Z,100
2022-10-13T08:17:01.735Z,100
2022-10-13T08:18:02.519Z,100
2022-10-13T08:19:02.327Z,100
2022-10-13T08:20:02.312Z,100
2022-10-13T08:21:53.107Z,100
2022-10-13T08:22:01.613Z,100
2022-10-13T08:23:02.560Z,100
2022-10-13T08:24:02.354Z,100
2022-10-13T08:25:02.345Z,100
2022-10-13T08:26:02.078Z,100
2022-10-13T08:27:02.013Z,100
2022-10-13T08:28:01.994Z,100
2022-10-13T08:29:23.247Z,100
2022-10-13T08:30:02.185Z,100
2022-10-13T08:31:02.437Z,100
2022-10-13T08:32:02.468Z,100
2022-10-13T08:33:02.213Z,100
2022-10-13T08:34:02.184Z,100
2022-10-13T08:35:01.959Z,100
2022-10-13T08:36:01.790Z,100
2022-10-13T08:37:01.726Z,100
2022-10-13T08:38:01.525Z,100
2022-10-13T08:39:02.482Z,100
2022-10-13T08:40:02.262Z,100
2022-10-13T08:41:02.278Z,100
2022-10-13T08:42:02.005Z,100
2022-10-13T08:43:01.984Z,100
2022-10-13T08:45:22.073Z,100
2022-10-13T08:45:41.952Z,100
2022-10-13T08:46:02.155Z,100
2022-10-13T08:47:02.362Z,100
2022-10-13T08:48:02.093Z,100
2022-10-13T08:49:02.106Z,100
2022-10-13T08:50:01.851Z,100
2022-10-13T08:51:01.867Z,100
2022-10-13T08:52:01.590Z,99
2022-10-13T08:53:02.551Z,97
2022-10-13T08:54:02.337Z,98
2022-10-13T08:55:02.291Z,100
2022-10-13T08:56:02.029Z,97
2022-10-13T08:57:01.957Z,95
2022-10-13T08:58:01.890Z,99
2022-10-13T08:59:01.637Z,99
2022-10-13T09:00:02.655Z,95
2022-10-13T09:01:02.407Z,97
2022-10-13T09:02:01.668Z,95
2022-10-13T09:03:01.630Z,91
2022-10-13T09:04:02.521Z,93
2022-10-13T09:05:02.291Z,89
2022-10-13T09:06:02.214Z,93
2022-10-13T09:07:01.933Z,88
2022-10-13T09:08:01.843Z,89
2022-10-13T09:09:01.770Z,88
2022-10-13T09:10:01.510Z,93
2022-10-13T09:11:02.536Z,89
2022-10-13T09:12:02.274Z,92
2022-10-13T09:13:02.220Z,93
2022-10-13T09:14:02.007Z,91
2022-10-13T09:15:01.872Z,92
2022-10-13T09:16:01.807Z,92
2022-10-13T09:17:02.061Z,89
2022-10-13T09:18:01.875Z,84
2022-10-13T09:19:01.891Z,86
2022-10-13T09:20:01.635Z,86
2022-10-13T09:21:02.575Z,87
2022-10-13T09:22:02.400Z,87
2022-10-13T09:23:02.283Z,84
2022-10-13T09:24:02.090Z,87
2022-10-13T09:25:01.973Z,87
2022-10-13T09:26:02.043Z,83
2022-10-13T09:27:01.841Z,82
2022-10-13T09:28:01.889Z,78
2022-10-13T09:29:01.688Z,81
2022-10-13T09:30:02.552Z,78
2022-10-13T09:31:02.355Z,81
2022-10-13T09:32:01.556Z,79
2022-10-13T09:33:02.576Z,79
2022-10-13T09:34:02.318Z,80
2022-10-13T09:35:02.277Z,76
2022-10-13T09:36:02.060Z,81
2022-10-13T09:37:01.951Z,78
2022-10-13T09:38:01.903Z,78
2022-10-13T09:39:01.750Z,79
2022-10-13T09:40:01.659Z,79
2022-10-13T09:41:02.514Z,77
2022-10-13T09:42:02.286Z,75
2022-10-13T09:43:02.213Z,72
2022-10-13T09:44:02.043Z,74
2022-10-13T09:45:01.866Z,76
2022-10-13T09:46:01.828Z,74
2022-10-13T09:47:01.629Z,73
2022-10-13T09:48:01.681Z,74
2022-10-13T09:49:02.516Z,73
2022-10-13T09:50:07.611Z,71
2022-10-13T09:51:02.426Z,72
2022-10-13T09:52:02.403Z,73
2022-10-13T09:53:02.150Z,72
2022-10-13T09:54:02.158Z,71
2022-10-13T09:55:01.908Z,71
2022-10-13T09:56:01.877Z,72
2022-10-13T09:57:01.683Z,70
2022-10-13T09:58:01.640Z,72
2022-10-13T09:59:02.603Z,70
2022-10-13T10:01:02.405Z,69
2022-10-13T10:02:01.561Z,67
2022-10-13T10:03:02.601Z,68
2022-10-13T10:04:02.475Z,67
2022-10-13T10:05:02.383Z,68
2022-10-13T10:06:02.301Z,68
2022-10-13T10:07:02.290Z,66
2022-10-13T10:08:02.034Z,65
2022-10-13T10:09:05.144Z,64
2022-10-13T10:10:02.132Z,66
2022-10-13T10:11:02.107Z,62
2022-10-13T10:12:01.856Z,63
2022-10-13T10:13:01.868Z,61
2022-10-13T10:14:01.558Z,61
2022-10-13T10:15:02.546Z,65
2022-10-13T10:16:02.315Z,62
2022-10-13T10:17:01.531Z,62
2022-10-13T10:18:02.553Z,62
2022-10-13T10:19:02.306Z,61
2022-10-13T10:20:02.298Z,64
2022-10-13T10:21:02.058Z,64
2022-10-13T10:22:01.961Z,63
2022-10-13T10:23:01.913Z,60
2022-10-13T10:24:01.731Z,62
2022-10-13T10:25:01.704Z,63
2022-10-13T10:26:02.541Z,64
2022-10-13T10:27:02.295Z,62
2022-10-13T10:28:02.296Z,62
2022-10-13T10:29:02.154Z,61
2022-10-13T10:30:02.154Z,62
2022-10-13T10:31:02.091Z,62
2022-10-13T10:32:01.986Z,60
2022-10-13T10:33:01.837Z,61
2022-10-13T10:34:01.776Z,59
2022-10-13T10:35:01.579Z,61
2022-10-13T10:36:02.660Z,59
2022-10-13T10:37:02.359Z,59
2022-10-13T10:38:02.371Z,59
2022-10-13T10:39:02.126Z,59
2022-10-13T10:40:02.060Z,61
2022-10-13T10:41:01.822Z,63
2022-10-13T10:42:01.886Z,59
2022-10-13T10:43:01.602Z,59
2022-10-13T10:44:02.547Z,60
2022-10-13T10:45:02.318Z,65
2022-10-13T10:46:02.344Z,61
2022-10-13T10:47:01.985Z,59
2022-10-13T10:48:01.867Z,57
2022-10-13T10:49:01.799Z,58
2022-10-13T10:50:01.570Z,59
2022-10-13T10:51:02.564Z,61
2022-10-13T10:52:02.327Z,59
2022-10-13T10:53:02.311Z,59
2022-10-13T10:54:02.102Z,62
2022-10-13T10:55:01.977Z,60
2022-10-13T10:56:01.931Z,62
2022-10-13T10:57:01.716Z,57
2022-10-13T10:58:01.710Z,58
2022-10-13T10:59:02.515Z,56
2022-10-13T11:00:02.351Z,55
2022-10-13T11:01:02.258Z,55
2022-10-13T11:02:02.256Z,55
2022-10-13T11:03:02.096Z,57
2022-10-13T11:04:02.118Z,57
2022-10-13T11:05:06.757Z,57
2022-10-13T11:06:01.575Z,55
2022-10-13T11:07:02.663Z,55
2022-10-13T11:08:02.466Z,55
2022-10-13T11:09:02.369Z,58
2022-10-13T11:10:02.121Z,55
2022-10-13T11:11:02.077Z,55
2022-10-13T11:12:01.857Z,54
2022-10-13T11:13:01.808Z,54
2022-10-13T11:14:01.579Z,54
2022-10-13T11:15:02.601Z,53
2022-10-13T11:16:02.332Z,53
2022-10-13T11:17:02.325Z,54
2022-10-13T11:18:02.222Z,55
2022-10-13T11:19:02.040Z,54
2022-10-13T11:20:01.920Z,54
2022-10-13T11:21:01.890Z,54
2022-10-13T11:22:01.704Z,54
2022-10-13T11:23:01.596Z,55
2022-10-13T11:24:02.587Z,54
2022-10-13T11:25:02.339Z,54
2022-10-13T11:26:02.209Z,54
2022-10-13T11:27:02.008Z,56
2022-10-13T11:28:01.891Z,54
2022-10-13T11:29:01.772Z,54
2022-10-13T11:30:01.613Z,53
2022-10-13T11:31:02.508Z,55
2022-10-13T11:32:01.520Z,52
2022-10-13T11:33:02.445Z,53
2022-10-13T11:34:02.247Z,51
2022-10-13T11:35:02.184Z,52
2022-10-13T11:36:02.055Z,54
2022-10-13T11:37:01.988Z,52
2022-10-13T11:38:09.306Z,53
2022-10-13T11:39:01.830Z,54
2022-10-13T11:40:01.765Z,56
2022-10-13T11:41:01.574Z,56
2022-10-13T11:42:02.501Z,56
2022-10-13T11:43:08.189Z,56
2022-10-13T11:44:02.182Z,58
2022-10-13T11:45:02.124Z,56
2022-10-13T11:46:01.970Z,55
2022-10-13T11:47:01.973Z,56
2022-10-13T11:48:01.911Z,58
2022-10-13T11:49:01.702Z,57
2022-10-13T11:50:01.625Z,58
2022-10-13T11:51:02.431Z,58
2022-10-13T11:52:02.287Z,57
2022-10-13T11:53:02.335Z,58
2022-10-13T11:54:02.076Z,57
2022-10-13T11:55:01.946Z,58
2022-10-13T11:56:01.805Z,57
2022-10-13T11:57:01.614Z,58
2022-10-13T11:58:02.640Z,54
2022-10-13T11:59:02.399Z,56
2022-10-13T12:00:02.353Z,54
2022-10-13T12:01:02.093Z,53
2022-10-13T12:02:02.077Z,55
2022-10-13T12:03:02.056Z,56
2022-10-13T12:04:01.885Z,56
2022-10-13T12:05:01.868Z,55
2022-10-13T12:06:01.608Z,56
2022-10-13T12:07:02.574Z,60
2022-10-13T12:08:02.382Z,63
2022-10-13T12:09:02.353Z,61
2022-10-13T12:10:02.083Z,60
2022-10-13T12:11:02.072Z,60
2022-10-13T12:12:01.951Z,63
2022-10-13T12:13:01.734Z,64
2022-10-13T12:14:01.722Z,64
2022-10-13T12:15:07.240Z,64
2022-10-13T12:16:02.036Z,64
2022-10-13T12:17:02.372Z,66
2022-10-13T12:18:02.332Z,62
2022-10-13T12:19:02.090Z,64
2022-10-13T12:20:01.917Z,64
2022-10-13T12:21:01.919Z,65
2022-10-13T12:22:01.647Z,65
2022-10-13T12:23:02.640Z,67
2022-10-13T12:24:02.365Z,70
2022-10-13T12:25:02.326Z,68
2022-10-13T12:26:02.090Z,68
2022-10-13T12:27:01.965Z,68
2022-10-13T12:28:01.910Z,66
2022-10-13T12:29:01.643Z,66
2022-10-13T12:30:01.664Z,64
2022-10-13T12:31:02.546Z,64
2022-10-13T12:32:02.485Z,63
2022-10-13T12:33:02.450Z,63
2022-10-13T12:34:02.219Z,62
2022-10-13T12:35:02.202Z,62
2022-10-13T12:36:01.895Z,61
2022-10-13T12:37:01.943Z,62
2022-10-13T12:38:01.665Z,62
2022-10-13T12:39:01.629Z,62
2022-10-13T12:40:02.574Z,64
2022-10-13T12:41:02.278Z,65
2022-10-13T12:42:02.380Z,71
2022-10-13T12:43:02.129Z,71
2022-10-13T12:44:07.045Z,73
2022-10-13T12:45:01.768Z,73
2022-10-13T12:46:01.794Z,71
2022-10-13T12:47:01.638Z,70
2022-10-13T12:48:01.674Z,67
2022-10-13T12:49:02.506Z,69
2022-10-13T12:50:02.298Z,70
2022-10-13T12:51:02.237Z,71
2022-10-13T12:52:02.003Z,72
2022-10-13T12:53:01.843Z,71
2022-10-13T12:54:01.802Z,69
2022-10-13T12:55:01.532Z,68
2022-10-13T12:56:02.502Z,70
2022-10-13T12:57:02.266Z,70
2022-10-13T12:58:02.215Z,69
2022-10-13T12:59:01.974Z,71
2022-10-13T13:00:01.836Z,69
2022-10-13T13:01:02.071Z,68
2022-10-13T13:02:01.776Z,68
2022-10-13T13:03:01.740Z,67
2022-10-13T13:04:02.574Z,68
2022-10-13T13:05:02.348Z,69
2022-10-13T13:06:01.873Z,68
2022-10-13T13:07:01.615Z,67
2022-10-13T13:08:01.922Z,66
2022-10-13T13:09:02.515Z,66
2022-10-13T13:10:01.840Z,67
2022-10-13T13:11:02.311Z,67
2022-10-13T13:12:02.117Z,68
2022-10-13T13:13:02.073Z,68
2022-10-13T13:14:02.124Z,68
2022-10-13T13:15:01.984Z,71
2022-10-13T13:16:01.895Z,70
2022-10-13T13:17:01.749Z,70
2022-10-13T13:18:01.757Z,70
2022-10-13T13:19:01.583Z,69
2022-10-13T13:20:01.678Z,70
2022-10-13T13:21:02.622Z,72
2022-10-13T13:22:02.433Z,71
2022-10-13T13:23:02.455Z,69
2022-10-13T13:24:16.372Z,71
2022-10-13T13:25:01.589Z,71
2022-10-13T13:26:01.648Z,71
2022-10-13T13:27:01.644Z,72
2022-10-13T13:28:01.696Z,71
2022-10-13T13:29:01.537Z,72
2022-10-13T13:30:02.566Z,73
2022-10-13T13:31:02.434Z,73
2022-10-13T13:32:01.551Z,73
2022-10-13T13:33:02.739Z,72
2022-10-13T13:34:01.570Z,72
2022-10-13T13:35:01.660Z,72
2022-10-13T13:36:02.634Z,73
2022-10-13T13:37:02.450Z,75
2022-10-13T13:38:02.497Z,78
2022-10-13T13:39:02.420Z,81
2022-10-13T13:40:02.316Z,82
2022-10-13T13:41:04.596Z,80
2022-10-13T13:42:02.393Z,78
2022-10-13T13:43:02.444Z,78
2022-10-13T13:44:02.269Z,79
2022-10-13T13:45:02.370Z,80
2022-10-13T13:46:02.120Z,78
2022-10-13T13:47:02.065Z,77
2022-10-13T13:48:02.138Z,78
2022-10-13T13:49:01.909Z,76
2022-10-13T13:50:02.016Z,77
2022-10-13T13:51:02.029Z,76
2022-10-13T13:52:01.861Z,77
2022-10-13T13:53:01.861Z,80
2022-10-13T13:54:01.646Z,81
2022-10-13T13:55:01.671Z,81
2022-10-13T13:56:01.517Z,82
2022-10-13T13:57:02.622Z,84
2022-10-13T13:58:02.417Z,81